Time;durP1;ratioP1;P1;durP2;ratioP2;P2;SDS_P1;SDS_P2;PMS_P1;PMS_P2;Temp;Humidity;BMP_temperature;BMP_pressure;BME280_temperature;BME280_humidity;BME280_pressure;Samples;Min_cycle;Max_cycle;Signal;HPM_P1;HPM_P2
2021/08/26 00:00:02;;;;;;;3.67;1.02;;;24.00;96.70;;;;;;4959863;28;20051;-81
2021/08/26 00:08:05;;;;;;;1.55;0.85;;;24.00;96.70;;;;;;4962616;28;20227;-81
2021/08/26 00:10:36;;;;;;;2.05;1.02;;;23.90;96.70;;;;;;4962069;28;20043;-81
2021/08/26 00:13:07;;;;;;;2.72;0.93;;;23.90;96.70;;;;;;4959035;28;20050;-81
2021/08/26 00:15:36;;;;;;;1.35;0.85;;;23.90;96.70;;;;;;4963031;28;20062;-81
2021/08/26 00:18:07;;;;;;;7.72;1.10;;;23.90;96.70;;;;;;4962426;28;20030;-81
2021/08/26 00:20:41;;;;;;;7.57;1.00;;;23.70;96.70;;;;;;4962124;28;20102;-82
2021/08/26 00:23:11;;;;;;;4.40;1.10;;;23.70;96.70;;;;;;4968441;28;20125;-82
2021/08/26 00:25:40;;;;;;;4.78;1.20;;;23.70;96.70;;;;;;4962318;28;20048;-81
2021/08/26 00:28:14;;;;;;;2.25;1.02;;;23.80;96.70;;;;;;4958196;28;20455;-81
2021/08/26 00:30:43;;;;;;;2.42;1.08;;;23.80;96.70;;;;;;4958096;28;20042;-81
2021/08/26 00:33:13;;;;;;;2.58;1.15;;;23.60;96.70;;;;;;4980772;28;20055;-81
2021/08/26 00:35:44;;;;;;;4.63;1.10;;;23.50;96.70;;;;;;4958621;28;20121;-81
2021/08/26 00:38:14;;;;;;;4.75;1.10;;;23.60;96.70;;;;;;4965562;28;20047;-81
2021/08/26 00:40:43;;;;;;;2.92;1.10;;;23.60;96.70;;;;;;4962289;28;20141;-81
2021/08/26 00:43:13;;;;;;;1.58;0.90;;;23.50;96.70;;;;;;4964508;28;20563;-81
2021/08/26 00:45:44;;;;;;;2.63;1.00;;;23.50;96.70;;;;;;4963544;28;20043;-81
2021/08/26 00:48:12;;;;;;;3.33;1.00;;;23.50;96.70;;;;;;4964392;28;20042;-81
2021/08/26 00:50:40;;;;;;;3.42;0.93;;;23.50;96.70;;;;;;4968425;28;20566;-81
2021/08/26 00:53:10;;;;;;;2.72;0.90;;;23.50;96.70;;;;;;4973070;28;20347;-81
2021/08/26 00:55:38;;;;;;;3.75;0.90;;;23.60;96.70;;;;;;4962393;28;20054;-81
2021/08/26 00:58:06;;;;;;;1.90;0.98;;;23.60;96.70;;;;;;4948573;28;20042;-81
2021/08/26 01:00:35;;;;;;;2.67;0.98;;;23.60;96.70;;;;;;4962993;28;20047;-81
2021/08/26 01:03:08;;;;;;;4.07;1.10;;;23.50;96.70;;;;;;4946454;28;20187;-81
2021/08/26 01:05:46;;;;;;;2.10;1.00;;;23.50;96.70;;;;;;4961551;28;20047;-81
2021/08/26 01:08:19;;;;;;;2.03;0.98;;;23.40;96.70;;;;;;4956735;28;20136;-81
2021/08/26 01:10:54;;;;;;;2.15;0.98;;;23.20;96.70;;;;;;4966336;28;20026;-81
2021/08/26 01:13:25;;;;;;;3.45;1.10;;;23.10;96.70;;;;;;4955536;28;20601;-82
2021/08/26 01:16:40;;;;;;;3.38;0.90;;;23.00;96.70;;;;;;4962791;28;20061;-81
2021/08/26 01:19:08;;;;;;;2.10;1.25;;;23.10;96.70;;;;;;4959139;28;20043;-81
2021/08/26 01:21:36;;;;;;;2.80;1.00;;;23.20;96.70;;;;;;4978325;28;20043;-81
2021/08/26 01:24:17;;;;;;;3.30;1.52;;;23.20;96.70;;;;;;4961842;28;20043;-81
2021/08/26 01:26:52;;;;;;;1.80;1.02;;;23.20;96.70;;;;;;4962126;28;20069;-81
2021/08/26 01:29:28;;;;;;;3.80;1.25;;;23.20;96.70;;;;;;4957686;28;20082;-81
2021/08/26 01:31:57;;;;;;;2.88;0.90;;;23.20;96.70;;;;;;4959297;28;20144;-80
2021/08/26 01:34:27;;;;;;;2.05;1.08;;;23.20;96.70;;;;;;4964310;28;20058;-81
2021/08/26 01:36:57;;;;;;;1.92;0.77;;;23.10;96.70;;;;;;4962262;28;20140;-81
2021/08/26 01:39:26;;;;;;;2.88;1.15;;;23.00;96.70;;;;;;4965577;28;20133;-81
2021/08/26 01:41:56;;;;;;;2.65;1.00;;;23.00;96.70;;;;;;4967196;28;20039;-81
2021/08/26 01:44:26;;;;;;;1.33;0.98;;;23.00;96.70;;;;;;4962017;28;20405;-80
2021/08/26 01:46:56;;;;;;;2.05;0.80;;;22.90;96.70;;;;;;4960224;28;20385;-81
2021/08/26 01:49:25;;;;;;;2.38;1.00;;;22.80;96.70;;;;;;4959926;28;20134;-81
2021/08/26 01:51:53;;;;;;;1.95;1.00;;;22.80;96.70;;;;;;4959591;28;20058;-81
2021/08/26 01:54:21;;;;;;;3.97;1.00;;;22.80;96.70;;;;;;4959044;28;20059;-81
2021/08/26 01:56:50;;;;;;;3.17;1.15;;;22.50;96.70;;;;;;4957789;28;20035;-81
2021/08/26 01:59:20;;;;;;;2.95;1.10;;;22.50;96.70;;;;;;4961684;28;20141;-81
2021/08/26 02:01:48;;;;;;;3.17;0.93;;;22.60;96.70;;;;;;4960460;28;20039;-81
2021/08/26 02:04:16;;;;;;;4.90;1.45;;;22.60;96.70;;;;;;4957423;28;20431;-81
2021/08/26 02:06:45;;;;;;;2.47;1.20;;;22.60;96.70;;;;;;4965933;28;20058;-81
2021/08/26 02:09:13;;;;;;;2.03;1.00;;;22.80;96.70;;;;;;4962929;28;20047;-81
2021/08/26 02:11:41;;;;;;;2.45;1.00;;;22.80;96.70;;;;;;4959529;28;20408;-81
2021/08/26 02:14:09;;;;;;;2.22;0.90;;;22.70;96.70;;;;;;4974121;28;20059;-81
2021/08/26 02:16:39;;;;;;;3.80;1.27;;;22.60;96.70;;;;;;4959961;28;20051;-81
2021/08/26 02:19:07;;;;;;;3.30;1.25;;;22.50;96.70;;;;;;4969266;28;20053;-81
2021/08/26 02:21:35;;;;;;;4.93;1.52;;;22.50;96.70;;;;;;4961448;28;20043;-81
2021/08/26 02:24:04;;;;;;;5.25;1.60;;;22.50;96.70;;;;;;4960358;28;20098;-81
2021/08/26 02:26:32;;;;;;;3.72;1.15;;;22.60;96.70;;;;;;4960835;28;20103;-81
2021/08/26 02:29:00;;;;;;;3.53;1.00;;;22.60;96.70;;;;;;4966276;28;20035;-81
2021/08/26 02:31:29;;;;;;;3.60;1.23;;;22.50;96.70;;;;;;4967297;28;20050;-81
2021/08/26 02:34:23;;;;;;;2.13;1.10;;;22.30;96.70;;;;;;4964495;28;20072;-81
2021/08/26 02:36:52;;;;;;;2.55;1.13;;;22.30;96.70;;;;;;4942118;28;20050;-81
2021/08/26 02:39:36;;;;;;;2.47;1.05;;;22.40;96.70;;;;;;4977552;28;20141;-81
2021/08/26 02:42:04;;;;;;;2.63;1.00;;;22.40;96.70;;;;;;4949331;28;20517;-80
2021/08/26 02:44:48;;;;;;;1.77;1.17;;;22.50;96.70;;;;;;4959207;28;20055;-81
2021/08/26 02:47:16;;;;;;;2.60;0.90;;;22.30;96.70;;;;;;5004038;28;20504;-81
2021/08/26 02:49:46;;;;;;;3.05;1.30;;;22.30;96.70;;;;;;4960168;28;20101;-81
2021/08/26 02:52:15;;;;;;;4.80;1.17;;;22.20;96.70;;;;;;4964810;28;20047;-82
2021/08/26 02:54:43;;;;;;;3.70;1.00;;;22.20;96.70;;;;;;4962353;28;20053;-81
2021/08/26 02:57:11;;;;;;;3.53;1.15;;;22.10;96.70;;;;;;4958314;28;20047;-82
2021/08/26 02:59:40;;;;;;;2.38;1.40;;;22.30;96.70;;;;;;4960123;28;20066;-81
2021/08/26 03:02:08;;;;;;;3.30;1.50;;;22.30;96.70;;;;;;4959621;28;20540;-81
2021/08/26 03:04:37;;;;;;;2.40;1.15;;;22.30;96.70;;;;;;4962089;28;20130;-81
2021/08/26 03:07:07;;;;;;;1.48;1.08;;;22.20;96.70;;;;;;4963656;28;20584;-81
2021/08/26 03:09:35;;;;;;;2.60;1.00;;;22.20;96.70;;;;;;4964074;28;20501;-82
2021/08/26 03:12:05;;;;;;;7.20;1.85;;;22.00;96.70;;;;;;4963512;28;20560;-82
2021/08/26 03:14:34;;;;;;;2.58;1.17;;;21.80;96.70;;;;;;4961797;28;20061;-82
2021/08/26 03:17:03;;;;;;;2.33;1.13;;;21.80;96.70;;;;;;4964650;28;20039;-83
2021/08/26 03:19:31;;;;;;;1.70;1.20;;;21.90;96.70;;;;;;4962942;28;20058;-83
2021/08/26 03:22:00;;;;;;;2.28;0.90;;;22.00;96.70;;;;;;4977061;28;20122;-82
2021/08/26 03:24:29;;;;;;;1.92;1.05;;;22.00;96.70;;;;;;4963441;28;20049;-82
2021/08/26 03:26:58;;;;;;;2.55;1.40;;;22.00;96.70;;;;;;4970264;28;20428;-83
2021/08/26 03:29:27;;;;;;;2.03;1.10;;;21.70;96.70;;;;;;4963341;28;20130;-83
2021/08/26 03:31:57;;;;;;;4.22;1.38;;;21.70;96.70;;;;;;4961302;28;20065;-83
2021/08/26 03:34:26;;;;;;;5.22;1.10;;;21.80;96.70;;;;;;4956739;28;20097;-82
2021/08/26 03:36:55;;;;;;;3.78;0.93;;;21.80;96.70;;;;;;4943665;28;20054;-82
2021/08/26 03:39:23;;;;;;;3.38;1.35;;;21.80;96.70;;;;;;4977360;28;20507;-83
2021/08/26 03:41:53;;;;;;;3.03;1.15;;;21.80;96.70;;;;;;4964486;28;20065;-83
2021/08/26 03:44:21;;;;;;;2.50;1.20;;;21.80;96.70;;;;;;4960602;28;20038;-83
2021/08/26 03:46:50;;;;;;;1.48;1.08;;;21.70;96.70;;;;;;4965036;28;20036;-82
2021/08/26 03:49:18;;;;;;;5.00;1.45;;;21.60;96.70;;;;;;4961739;28;20043;-83
2021/08/26 03:51:47;;;;;;;1.95;0.80;;;21.60;96.70;;;;;;4965207;28;20038;-82
2021/08/26 03:57:56;;;;;;;;;;;21.80;96.70;;;;;;4972973;28;20646;-82
2021/08/26 04:00:24;;;;;;;2.30;0.90;;;21.50;96.70;;;;;;4965422;28;19949;-82
2021/08/26 04:02:52;;;;;;;2.38;1.08;;;21.30;96.70;;;;;;4958571;28;20078;-82
2021/08/26 04:05:20;;;;;;;1.73;0.98;;;21.00;96.70;;;;;;4965412;28;20076;-83
2021/08/26 04:07:48;;;;;;;4.78;1.10;;;21.00;96.70;;;;;;4963487;28;20383;-82
2021/08/26 04:10:16;;;;;;;5.65;1.10;;;21.20;96.70;;;;;;4980828;28;20041;-83
2021/08/26 04:12:44;;;;;;;4.88;1.30;;;21.30;96.70;;;;;;4948210;28;20042;-83
2021/08/26 04:15:14;;;;;;;3.88;1.17;;;21.40;96.70;;;;;;4970198;28;20692;-82
2021/08/26 04:17:42;;;;;;;2.40;1.30;;;21.50;96.70;;;;;;4962835;28;20405;-82
2021/08/26 04:20:11;;;;;;;2.55;1.10;;;21.50;96.70;;;;;;4961994;28;20046;-83
2021/08/26 04:22:39;;;;;;;2.95;1.20;;;21.50;96.70;;;;;;4958051;28;20046;-82
2021/08/26 04:25:07;;;;;;;1.92;0.80;;;21.40;96.70;;;;;;4969098;28;20046;-82
2021/08/26 04:27:36;;;;;;;1.92;1.20;;;21.40;96.70;;;;;;4961874;28;20062;-83
2021/08/26 04:30:06;;;;;;;3.25;1.60;;;21.30;96.70;;;;;;4958288;28;20497;-82
2021/08/26 04:32:37;;;;;;;2.55;1.13;;;21.30;96.70;;;;;;4963341;28;20417;-83
2021/08/26 04:35:07;;;;;;;4.45;1.38;;;21.30;96.70;;;;;;4963285;28;20133;-83
2021/08/26 04:37:35;;;;;;;3.03;1.27;;;21.20;96.70;;;;;;4963734;28;20090;-82
2021/08/26 04:40:04;;;;;;;5.05;1.10;;;21.00;96.70;;;;;;4962987;28;20110;-83
2021/08/26 04:42:32;;;;;;;3.45;1.30;;;20.90;96.70;;;;;;4958984;28;20039;-83
2021/08/26 04:45:01;;;;;;;2.95;1.08;;;21.20;96.70;;;;;;4960812;28;20046;-83
2021/08/26 04:47:29;;;;;;;2.65;1.23;;;21.30;96.70;;;;;;4967117;28;20042;-83
2021/08/26 04:49:58;;;;;;;3.22;1.58;;;21.40;96.70;;;;;;4959504;28;20047;-83
2021/08/26 04:52:26;;;;;;;2.40;1.25;;;21.40;96.70;;;;;;4961959;28;20051;-83
2021/08/26 04:54:54;;;;;;;2.55;0.90;;;21.20;96.70;;;;;;4963094;28;20051;-83
2021/08/26 04:57:22;;;;;;;4.18;1.35;;;21.30;96.70;;;;;;4966454;28;21100;-83
2021/08/26 04:59:50;;;;;;;3.60;1.00;;;21.50;96.70;;;;;;4958634;28;20059;-84
2021/08/26 05:02:18;;;;;;;2.03;1.25;;;21.50;96.70;;;;;;4964067;28;20062;-83
2021/08/26 05:04:46;;;;;;;2.95;1.40;;;21.40;96.70;;;;;;4958382;28;20591;-84
2021/08/26 05:07:16;;;;;;;1.80;0.88;;;21.30;96.70;;;;;;4961427;28;20043;-81
2021/08/26 05:09:44;;;;;;;3.63;1.30;;;21.30;96.70;;;;;;4961682;28;20039;-84
2021/08/26 05:12:12;;;;;;;3.40;1.05;;;21.30;96.70;;;;;;4967014;28;20552;-83
2021/08/26 05:14:40;;;;;;;3.28;1.25;;;21.40;96.70;;;;;;4962681;28;20209;-83
2021/08/26 05:17:08;;;;;;;2.80;1.10;;;21.50;96.70;;;;;;4959946;28;20042;-82
2021/08/26 05:19:36;;;;;;;3.00;1.00;;;21.60;96.70;;;;;;4961206;28;20114;-83
2021/08/26 05:22:04;;;;;;;3.88;1.30;;;21.30;96.70;;;;;;4975170;28;20117;-83
2021/08/26 05:24:34;;;;;;;3.17;1.55;;;21.30;96.70;;;;;;4961978;28;20053;-83
2021/08/26 05:27:02;;;;;;;2.38;1.25;;;21.40;96.70;;;;;;4962010;28;20055;-83
2021/08/26 05:29:30;;;;;;;4.50;1.52;;;21.30;96.70;;;;;;4958867;28;20561;-84
2021/08/26 05:31:58;;;;;;;5.55;1.42;;;21.30;96.70;;;;;;4964711;28;20050;-85
2021/08/26 05:34:26;;;;;;;4.68;1.35;;;21.30;96.70;;;;;;4963576;28;20089;-83
2021/08/26 05:36:54;;;;;;;3.83;1.67;;;21.40;96.70;;;;;;4978492;28;20126;-84
2021/08/26 05:39:23;;;;;;;5.53;1.70;;;21.50;96.70;;;;;;4978172;28;20508;-85
2021/08/26 05:41:52;;;;;;;4.45;1.30;;;21.40;96.70;;;;;;4963188;28;20051;-84
2021/08/26 05:44:20;;;;;;;4.78;1.70;;;21.50;96.70;;;;;;4958483;28;20066;-84
2021/08/26 05:46:48;;;;;;;4.78;1.80;;;21.60;96.70;;;;;;4963315;28;20513;-84
2021/08/26 05:49:16;;;;;;;4.45;1.30;;;21.50;96.70;;;;;;4958184;28;20061;-84
2021/08/26 05:51:44;;;;;;;2.55;1.25;;;21.50;96.70;;;;;;4962921;28;20050;-84
2021/08/26 05:54:12;;;;;;;2.90;1.27;;;21.40;96.70;;;;;;4964532;28;20162;-82
2021/08/26 05:56:40;;;;;;;7.15;1.58;;;21.40;96.70;;;;;;4964160;28;20129;-82
2021/08/26 05:59:10;;;;;;;3.40;1.40;;;21.50;96.70;;;;;;4945527;28;20133;-83
2021/08/26 06:01:38;;;;;;;3.45;1.30;;;21.50;96.70;;;;;;4945007;28;20114;-82
2021/08/26 06:04:06;;;;;;;6.40;1.58;;;21.60;96.70;;;;;;4947561;28;20505;-81
2021/08/26 06:06:34;;;;;;;4.18;1.20;;;21.70;96.70;;;;;;4961574;28;20047;-82
2021/08/26 06:09:02;;;;;;;4.50;1.63;;;21.70;96.70;;;;;;4962587;28;20054;-81
2021/08/26 06:11:31;;;;;;;2.55;1.30;;;21.70;96.70;;;;;;4965625;28;20046;-88
2021/08/26 06:13:59;;;;;;;4.28;1.40;;;21.70;96.70;;;;;;4946503;28;20085;-88
2021/08/26 06:16:28;;;;;;;4.30;1.65;;;21.70;96.70;;;;;;4971955;28;20046;-88
2021/08/26 06:18:56;;;;;;;2.72;1.40;;;21.80;96.70;;;;;;4974816;28;20105;-87
2021/08/26 06:21:25;;;;;;;3.72;1.38;;;21.90;96.70;;;;;;4966284;28;20053;-84
2021/08/26 06:23:53;;;;;;;4.53;1.45;;;21.90;96.70;;;;;;4966140;28;20054;-86
2021/08/26 06:26:21;;;;;;;3.70;1.63;;;22.00;96.70;;;;;;4958988;28;20118;-87
2021/08/26 06:28:49;;;;;;;4.72;1.50;;;22.00;96.70;;;;;;4960096;28;20054;-86
2021/08/26 06:31:17;;;;;;;8.25;1.85;;;22.20;96.70;;;;;;4962142;28;20043;-86
2021/08/26 06:33:47;;;;;;;3.80;1.70;;;22.30;96.70;;;;;;4948773;28;20149;-86
2021/08/26 06:36:15;;;;;;;5.00;2.08;;;22.30;96.70;;;;;;4959898;28;20105;-87
2021/08/26 06:38:43;;;;;;;3.60;1.52;;;22.20;96.70;;;;;;4949745;28;20051;-86
2021/08/26 06:41:11;;;;;;;2.97;1.30;;;22.30;96.70;;;;;;4967319;28;20039;-86
2021/08/26 06:43:39;;;;;;;5.15;1.90;;;22.40;96.70;;;;;;4949218;28;20441;-87
2021/08/26 06:46:07;;;;;;;4.18;1.48;;;22.40;96.70;;;;;;4947723;28;20050;-87
2021/08/26 06:48:35;;;;;;;4.82;1.52;;;22.50;96.70;;;;;;4964937;28;20046;-86
2021/08/26 06:51:05;;;;;;;3.35;1.63;;;22.60;96.70;;;;;;4961600;28;20050;-87
2021/08/26 06:53:32;;;;;;;3.92;1.30;;;22.40;96.70;;;;;;4950692;28;20493;-86
2021/08/26 06:56:00;;;;;;;6.25;1.55;;;22.50;96.70;;;;;;4964623;28;20242;-87
2021/08/26 06:58:29;;;;;;;3.63;1.35;;;22.60;96.70;;;;;;4972139;28;20576;-87
2021/08/26 07:00:57;;;;;;;6.80;1.42;;;22.70;96.70;;;;;;4963518;28;20043;-87
2021/08/26 07:03:25;;;;;;;5.57;1.58;;;22.80;96.70;;;;;;4964557;28;20042;-86
2021/08/26 07:05:53;;;;;;;2.85;1.48;;;22.90;96.70;;;;;;4952429;28;20046;-87
2021/08/26 07:08:23;;;;;;;4.43;1.25;;;22.90;96.70;;;;;;4955666;28;20140;-86
2021/08/26 07:10:51;;;;;;;4.05;1.73;;;22.90;96.70;;;;;;4960519;28;20405;-86
2021/08/26 07:13:19;;;;;;;7.88;1.75;;;23.00;96.70;;;;;;4964060;28;20267;-86
2021/08/26 07:15:48;;;;;;;7.35;1.60;;;23.00;96.70;;;;;;4962157;28;20051;-86
2021/08/26 07:18:19;;;;;;;3.00;1.60;;;23.10;96.70;;;;;;4944093;28;20051;-85
2021/08/26 07:20:47;;;;;;;5.65;1.52;;;23.20;96.70;;;;;;4947905;28;20532;-84
2021/08/26 07:23:15;;;;;;;4.03;1.63;;;23.20;96.70;;;;;;4959778;28;20038;-84
2021/08/26 07:25:45;;;;;;;9.07;1.70;;;23.20;96.70;;;;;;4961795;28;20101;-83
2021/08/26 07:28:13;;;;;;;6.97;1.83;;;23.30;96.70;;;;;;4960963;28;20123;-84
2021/08/26 07:30:41;;;;;;;6.22;1.90;;;23.40;96.70;;;;;;4966043;28;20098;-84
2021/08/26 07:33:09;;;;;;;5.82;1.70;;;23.40;96.70;;;;;;4946544;28;20069;-84
2021/08/26 07:35:37;;;;;;;6.90;1.67;;;23.40;96.70;;;;;;4967529;28;20066;-84
2021/08/26 07:38:05;;;;;;;7.88;1.40;;;23.50;96.70;;;;;;4949337;28;20066;-84
2021/08/26 07:40:34;;;;;;;4.45;1.25;;;23.60;96.70;;;;;;4969475;28;20074;-83
2021/08/26 07:43:03;;;;;;;3.50;1.30;;;23.60;96.70;;;;;;4980907;28;20207;-83
2021/08/26 07:45:31;;;;;;;5.82;1.33;;;23.60;96.70;;;;;;4968346;28;20070;-84
2021/08/26 07:48:00;;;;;;;1.88;1.20;;;23.70;96.70;;;;;;4961663;28;20254;-84
2021/08/26 07:50:28;;;;;;;4.15;1.45;;;23.70;96.70;;;;;;4961560;28;20042;-84
2021/08/26 07:52:56;;;;;;;4.40;1.60;;;23.90;96.70;;;;;;4965419;28;20094;-86
2021/08/26 07:55:27;;;;;;;3.55;1.48;;;24.00;96.70;;;;;;4949760;28;20047;-86
2021/08/26 07:57:56;;;;;;;3.70;1.38;;;24.00;96.70;;;;;;4963775;28;20035;-87
2021/08/26 08:00:25;;;;;;;4.40;1.38;;;24.10;96.70;;;;;;4961404;28;20043;-86
2021/08/26 08:02:54;;;;;;;7.03;1.45;;;24.20;96.70;;;;;;4964344;28;20470;-86
2021/08/26 08:05:23;;;;;;;5.65;1.45;;;24.20;96.70;;;;;;4961468;28;20043;-86
2021/08/26 08:07:52;;;;;;;5.03;1.40;;;24.30;96.70;;;;;;4942531;28;20654;-87
2021/08/26 08:10:20;;;;;;;6.80;1.60;;;24.30;96.70;;;;;;4970270;28;20046;-85
2021/08/26 08:12:49;;;;;;;4.32;1.02;;;24.40;96.70;;;;;;4964417;28;20043;-86
2021/08/26 08:15:18;;;;;;;3.90;1.23;;;24.50;96.70;;;;;;4968397;28;20547;-86
2021/08/26 08:17:48;;;;;;;5.63;1.55;;;24.60;96.70;;;;;;4946938;28;20043;-86
2021/08/26 08:20:17;;;;;;;3.60;1.20;;;24.70;96.70;;;;;;4960386;28;20122;-86
2021/08/26 08:22:45;;;;;;;2.40;1.10;;;24.70;96.70;;;;;;4952852;28;20042;-86
2021/08/26 08:25:14;;;;;;;3.85;1.17;;;24.80;96.50;;;;;;4975317;28;20508;-86
2021/08/26 08:27:42;;;;;;;2.75;1.20;;;24.90;96.40;;;;;;4987211;28;20094;-86
2021/08/26 08:30:11;;;;;;;6.13;1.10;;;24.90;95.70;;;;;;4964568;28;20121;-84
2021/08/26 08:32:40;;;;;;;2.03;0.93;;;25.10;95.30;;;;;;4963804;28;20039;-84
2021/08/26 08:35:11;;;;;;;2.70;0.85;;;25.20;94.90;;;;;;4965575;28;20792;-84
2021/08/26 08:37:39;;;;;;;4.03;1.02;;;25.30;94.10;;;;;;4964664;28;20054;-84
2021/08/26 08:40:08;;;;;;;2.63;1.27;;;25.40;93.90;;;;;;4960628;28;20405;-84
2021/08/26 08:42:37;;;;;;;3.63;1.00;;;25.50;93.60;;;;;;4965402;28;20571;-84
2021/08/26 08:45:07;;;;;;;1.92;0.93;;;25.50;93.30;;;;;;4942438;28;20046;-83
2021/08/26 08:47:37;;;;;;;3.38;0.80;;;25.60;92.40;;;;;;4947441;28;20043;-85
2021/08/26 08:50:07;;;;;;;2.05;0.95;;;25.70;90.70;;;;;;4961534;28;20050;-84
2021/08/26 08:52:38;;;;;;;1.88;0.88;;;25.70;90.70;;;;;;4968612;28;20053;-84
2021/08/26 08:55:08;;;;;;;1.85;0.80;;;25.90;90.80;;;;;;4960877;28;20563;-84
2021/08/26 08:57:40;;;;;;;1.35;0.70;;;26.00;89.40;;;;;;4951917;28;20061;-84
2021/08/26 09:00:11;;;;;;;1.33;0.73;;;26.10;88.80;;;;;;4963993;28;20065;-84
2021/08/26 09:02:40;;;;;;;1.70;0.93;;;26.10;87.60;;;;;;4943202;28;20060;-84
2021/08/26 09:05:09;;;;;;;1.45;0.80;;;26.20;87.80;;;;;;4966496;28;20049;-83
2021/08/26 09:07:39;;;;;;;2.33;0.90;;;26.30;88.10;;;;;;4968242;28;20057;-84
2021/08/26 09:10:09;;;;;;;4.95;0.95;;;26.40;88.30;;;;;;4946844;28;20297;-83
2021/08/26 09:12:49;;;;;;;3.47;1.20;;;26.40;87.90;;;;;;4967192;28;20042;-83
2021/08/26 09:15:20;;;;;;;2.72;0.70;;;26.60;88.00;;;;;;4963875;28;20101;-83
2021/08/26 09:17:49;;;;;;;2.58;1.17;;;26.70;87.60;;;;;;4967326;28;20471;-84
2021/08/26 09:20:19;;;;;;;3.22;0.80;;;26.80;87.40;;;;;;4965704;28;20046;-84
2021/08/26 09:22:49;;;;;;;3.55;0.75;;;26.80;85.20;;;;;;4947765;28;20650;-84
2021/08/26 09:25:24;;;;;;;2.28;0.70;;;26.80;85.00;;;;;;4962638;28;20050;-85
2021/08/26 09:27:53;;;;;;;2.40;0.88;;;26.90;85.30;;;;;;4971950;28;20051;-85
2021/08/26 09:30:21;;;;;;;2.08;0.80;;;26.90;84.70;;;;;;4969436;28;20047;-83
2021/08/26 09:32:57;;;;;;;2.85;0.90;;;26.90;85.00;;;;;;4965019;28;20082;-84
2021/08/26 09:35:28;;;;;;;2.20;0.60;;;27.00;85.20;;;;;;4965353;28;20054;-81
2021/08/26 09:37:59;;;;;;;3.00;0.88;;;27.10;84.80;;;;;;4965627;28;20054;-80
2021/08/26 09:40:30;;;;;;;4.05;0.93;;;27.20;85.50;;;;;;4978129;28;20038;-80
2021/08/26 09:43:00;;;;;;;1.98;1.25;;;27.20;85.60;;;;;;4957342;28;20038;-81
2021/08/26 09:45:30;;;;;;;1.95;0.90;;;27.30;85.60;;;;;;4959167;28;20129;-81
2021/08/26 09:48:04;;;;;;;1.15;0.70;;;27.40;85.60;;;;;;4959373;28;20117;-80
2021/08/26 09:50:42;;;;;;;3.65;1.05;;;27.40;85.70;;;;;;4953828;28;20055;-82
2021/08/26 09:53:13;;;;;;;2.03;1.00;;;27.50;85.60;;;;;;4958425;28;20777;-82
2021/08/26 09:55:58;;;;;;;4.45;1.00;;;27.60;85.30;;;;;;4959890;28;20133;-80
2021/08/26 09:58:28;;;;;;;1.83;0.80;;;27.80;85.50;;;;;;4963760;28;20038;-82
2021/08/26 10:01:09;;;;;;;5.40;0.90;;;28.00;84.30;;;;;;4964571;28;20047;-82
2021/08/26 10:03:38;;;;;;;3.60;0.80;;;28.00;84.40;;;;;;4961722;28;20047;-85
2021/08/26 10:06:06;;;;;;;2.22;0.93;;;28.00;84.10;;;;;;4965337;28;20039;-81
2021/08/26 10:08:38;;;;;;;2.63;0.85;;;28.00;84.00;;;;;;4957070;28;20109;-83
2021/08/26 10:11:08;;;;;;;1.55;0.93;;;28.10;84.20;;;;;;4959397;28;20089;-82
2021/08/26 10:13:37;;;;;;;2.00;1.10;;;28.10;83.90;;;;;;4965502;28;20035;-82
2021/08/26 10:16:05;;;;;;;2.28;0.85;;;28.30;83.80;;;;;;4965208;28;20050;-82
2021/08/26 10:18:35;;;;;;;2.65;0.60;;;28.30;83.50;;;;;;4964862;28;20114;-83
2021/08/26 10:21:08;;;;;;;1.58;0.77;;;28.40;83.90;;;;;;4975226;28;20039;-82
2021/08/26 10:23:42;;;;;;;1.45;0.60;;;28.60;82.40;;;;;;4978113;28;20405;-82
2021/08/26 10:26:13;;;;;;;3.72;1.20;;;28.70;82.80;;;;;;4964869;28;20050;-83
2021/08/26 10:28:43;;;;;;;2.65;0.80;;;28.90;82.20;;;;;;4971705;28;20046;-82
2021/08/26 10:31:31;;;;;;;2.67;0.80;;;28.90;82.30;;;;;;4966736;28;20078;-82
2021/08/26 10:34:12;;;;;;;3.42;0.93;;;29.00;82.10;;;;;;4951488;28;20051;-82
2021/08/26 10:36:45;;;;;;;2.05;0.50;;;29.00;81.30;;;;;;4959975;28;20058;-82
2021/08/26 10:39:30;;;;;;;4.85;1.10;;;29.00;81.80;;;;;;4967576;28;20051;-83
2021/08/26 10:42:36;;;;;;;2.88;0.77;;;29.10;81.90;;;;;;4980408;28;20050;-83
2021/08/26 10:45:07;;;;;;;1.30;0.70;;;29.40;81.10;;;;;;4957186;28;20050;-82
2021/08/26 10:48:12;;;;;;;1.70;0.93;;;29.40;80.70;;;;;;4970222;28;20078;-76
2021/08/26 10:50:41;;;;;;;1.70;0.80;;;29.30;80.10;;;;;;4946530;28;20054;-83
2021/08/26 10:53:13;;;;;;;1.70;0.70;;;29.40;80.00;;;;;;4965719;28;20167;-83
2021/08/26 10:55:45;;;;;;;5.97;0.90;;;29.50;80.10;;;;;;4943445;28;20046;-83
2021/08/26 10:58:33;;;;;;;2.13;0.70;;;29.60;80.80;;;;;;4963469;28;20047;-83
2021/08/26 11:01:03;;;;;;;4.35;0.80;;;29.70;80.50;;;;;;4966652;28;20074;-79
2021/08/26 11:03:56;;;;;;;3.70;0.77;;;29.80;80.10;;;;;;4992056;28;20046;-82
2021/08/26 11:06:39;;;;;;;1.85;0.60;;;29.80;80.00;;;;;;4965375;28;20034;-81
2021/08/26 11:09:40;;;;;;;3.10;0.82;;;29.80;79.40;;;;;;4967374;28;20082;-83
2021/08/26 11:12:27;;;;;;;2.67;0.80;;;29.80;79.40;;;;;;4966916;28;20049;-82
2021/08/26 11:15:00;;;;;;;1.63;0.70;;;29.80;79.20;;;;;;4959562;28;20047;-83
2021/08/26 11:17:34;;;;;;;1.40;0.80;;;29.90;79.60;;;;;;4963488;28;20046;-83
2021/08/26 11:20:28;;;;;;;1.38;0.70;;;30.10;79.80;;;;;;4960390;28;20051;-82
2021/08/26 11:23:11;;;;;;;2.83;0.82;;;30.20;80.30;;;;;;4974904;28;20141;-80
2021/08/26 11:25:40;;;;;;;1.50;1.00;;;30.10;81.00;;;;;;4962927;28;20402;-82
2021/08/26 11:28:30;;;;;;;3.15;0.55;;;30.30;80.60;;;;;;4949837;28;20039;-79
2021/08/26 11:31:19;;;;;;;2.28;0.80;;;30.50;80.90;;;;;;4965090;28;20443;-81
2021/08/26 11:33:50;;;;;;;2.50;0.80;;;30.50;81.00;;;;;;4971906;28;20457;-83
2021/08/26 11:36:19;;;;;;;2.78;0.82;;;30.60;79.80;;;;;;4965214;28;20054;-82
2021/08/26 11:38:50;;;;;;;0.85;0.60;;;30.70;80.10;;;;;;4965753;28;20062;-82
2021/08/26 11:41:19;;;;;;;4.22;0.90;;;30.70;78.90;;;;;;4966419;28;20049;-82
2021/08/26 11:43:49;;;;;;;3.85;0.80;;;30.60;79.20;;;;;;4962632;28;20046;-83
2021/08/26 11:46:19;;;;;;;8.65;1.27;;;30.70;79.00;;;;;;4980916;28;20105;-82
2021/08/26 11:48:53;;;;;;;3.13;0.70;;;30.60;79.30;;;;;;4962602;28;20058;-85
2021/08/26 11:51:30;;;;;;;2.30;0.60;;;30.70;79.30;;;;;;4965342;28;20058;-80
2021/08/26 11:54:12;;;;;;;1.48;0.70;;;30.60;80.00;;;;;;4971793;28;20060;-77
2021/08/26 11:56:49;;;;;;;0.75;0.52;;;30.40;80.10;;;;;;4958875;28;20535;-80
2021/08/26 11:59:30;;;;;;;4.03;0.90;;;30.40;80.10;;;;;;4960745;28;20230;-78
2021/08/26 12:02:18;;;;;;;2.95;0.73;;;30.40;79.80;;;;;;4951750;28;20035;-80
2021/08/26 12:04:48;;;;;;;2.25;0.50;;;30.60;79.80;;;;;;4965679;28;20460;-80
2021/08/26 12:07:26;;;;;;;1.27;0.75;;;30.60;79.20;;;;;;4963842;28;20589;-79
2021/08/26 12:09:55;;;;;;;3.75;0.68;;;30.60;79.50;;;;;;4961878;28;20051;-80
2021/08/26 12:12:24;;;;;;;2.95;0.73;;;30.50;78.90;;;;;;4962348;28;20519;-80
2021/08/26 12:14:54;;;;;;;2.08;0.70;;;30.60;79.20;;;;;;4965507;28;20038;-80
2021/08/26 12:17:23;;;;;;;2.05;0.90;;;30.50;79.90;;;;;;4960860;28;20114;-79
2021/08/26 12:19:53;;;;;;;1.60;0.60;;;30.70;79.30;;;;;;4962941;28;20035;-80
2021/08/26 12:22:23;;;;;;;1.50;0.80;;;30.70;79.10;;;;;;4960512;28;20045;-78
2021/08/26 12:24:53;;;;;;;1.17;0.70;;;30.90;79.70;;;;;;4994563;28;20101;-81
2021/08/26 12:27:24;;;;;;;7.22;1.02;;;30.80;79.70;;;;;;4958577;28;20130;-81
2021/08/26 12:29:54;;;;;;;3.42;0.80;;;30.70;80.40;;;;;;4964834;28;20046;-84
2021/08/26 12:32:31;;;;;;;1.30;0.90;;;30.70;80.00;;;;;;4958664;28;20071;-80
2021/08/26 12:35:17;;;;;;;5.50;1.00;;;30.50;79.90;;;;;;4965120;28;20043;-80
2021/08/26 12:38:06;;;;;;;1.20;0.70;;;30.70;81.10;;;;;;4964329;28;20043;-81
2021/08/26 12:40:51;;;;;;;2.65;0.80;;;30.90;80.30;;;;;;4945624;28;20061;-80
2021/08/26 12:43:21;;;;;;;1.70;0.70;;;31.00;80.00;;;;;;4964107;28;20540;-80
2021/08/26 12:46:04;;;;;;;2.05;1.00;;;30.70;80.90;;;;;;4966740;28;20035;-81
2021/08/26 12:48:36;;;;;;;1.83;0.80;;;30.70;82.40;;;;;;4963260;28;20073;-81
2021/08/26 12:51:13;;;;;;;2.35;0.90;;;30.60;83.00;;;;;;4969650;28;20043;-81
2021/08/26 12:53:44;;;;;;;3.53;0.90;;;30.60;83.70;;;;;;4964661;28;20759;-80
2021/08/26 12:56:13;;;;;;;3.08;0.98;;;30.70;83.40;;;;;;4969118;28;20408;-81
2021/08/26 12:58:56;;;;;;;3.75;0.80;;;30.50;84.40;;;;;;4963146;28;20082;-79
2021/08/26 13:01:25;;;;;;;3.05;0.80;;;30.50;83.50;;;;;;4966217;28;20055;-80
2021/08/26 13:03:56;;;;;;;5.57;1.05;;;30.50;84.10;;;;;;4956694;28;20418;-81
2021/08/26 13:06:38;;;;;;;1.27;0.80;;;30.50;84.90;;;;;;4958993;28;20113;-80
2021/08/26 13:09:09;;;;;;;3.40;1.10;;;30.40;85.50;;;;;;4964068;28;20039;-79
2021/08/26 13:11:39;;;;;;;1.95;0.70;;;30.20;85.00;;;;;;4968291;28;20053;-81
2021/08/26 13:14:07;;;;;;;1.63;0.80;;;30.20;85.10;;;;;;4959570;28;20135;-81
2021/08/26 13:16:37;;;;;;;4.40;0.90;;;30.60;84.30;;;;;;4965052;28;20464;-76